createdAt,value
2019-05-29T00:00:05.784Z,1010.18
2019-05-29T00:01:08.944Z,1010.16
2019-05-29T00:02:05.991Z,1010.15
2019-05-29T00:03:06.131Z,1010.17
2019-05-29T00:04:04.605Z,1010.24
2019-05-29T00:05:04.594Z,1010.21
2019-05-29T00:06:04.593Z,1010.27
2019-05-29T00:07:04.584Z,1010.31
2019-05-29T00:08:04.573Z,1010.32
2019-05-29T00:09:04.578Z,1010.34
2019-05-29T00:10:04.551Z,1010.32
2019-05-29T00:11:04.538Z,1010.37
2019-05-29T00:12:04.566Z,1010.38
2019-05-29T00:13:04.506Z,1010.39
2019-05-29T00:14:18.726Z,1010.41
2019-05-29T00:15:06.189Z,1010.38
2019-05-29T00:16:04.486Z,1010.39
2019-05-29T00:17:04.472Z,1010.41
2019-05-29T00:18:04.450Z,1010.39
2019-05-29T00:19:04.440Z,1010.45
2019-05-29T00:20:04.444Z,1010.43
2019-05-29T00:21:04.451Z,1010.49
2019-05-29T00:22:04.417Z,1010.48
2019-05-29T00:23:04.412Z,1010.48
2019-05-29T00:24:04.386Z,1010.47
2019-05-29T00:25:04.387Z,1010.49
2019-05-29T00:26:04.362Z,1010.51
2019-05-29T00:27:05.391Z,1010.53
2019-05-29T00:28:04.347Z,1010.50
2019-05-29T00:29:05.551Z,1010.61
2019-05-29T00:30:04.326Z,1010.52
2019-05-29T00:31:05.686Z,1010.57
2019-05-29T00:32:04.324Z,1010.54
2019-05-29T00:33:04.298Z,1010.57
2019-05-29T00:34:04.282Z,1010.48
2019-05-29T00:35:04.281Z,1010.53
2019-05-29T00:36:04.270Z,1010.47
2019-05-29T00:37:04.272Z,1010.54
2019-05-29T00:38:04.250Z,1010.50
2019-05-29T00:39:04.274Z,1010.57
2019-05-29T00:40:04.225Z,1010.55
2019-05-29T00:41:04.216Z,1010.56
2019-05-29T00:42:04.210Z,1010.60
2019-05-29T00:43:04.198Z,1010.58
2019-05-29T00:44:04.189Z,1010.63
2019-05-29T00:45:04.176Z,1010.61
2019-05-29T00:46:04.154Z,1010.56
2019-05-29T00:47:04.173Z,1010.57
2019-05-29T00:48:04.156Z,1010.50
2019-05-29T00:49:04.115Z,1010.58
2019-05-29T00:50:04.102Z,1010.51
2019-05-29T00:51:04.099Z,1010.53
2019-05-29T00:52:04.135Z,1010.59
2019-05-29T00:53:04.077Z,1010.56
2019-05-29T00:54:04.082Z,1010.55
2019-05-29T00:55:04.077Z,1010.54
2019-05-29T00:56:04.050Z,1010.62
2019-05-29T00:57:04.061Z,1010.58
2019-05-29T00:58:04.033Z,1010.64
2019-05-29T00:59:04.007Z,1010.65
2019-05-29T01:00:03.999Z,1010.67
2019-05-29T01:01:03.985Z,1010.73
2019-05-29T01:02:03.998Z,1010.75
2019-05-29T01:03:03.964Z,1010.80
2019-05-29T01:04:03.953Z,1010.79
2019-05-29T01:05:03.953Z,1010.83
2019-05-29T01:06:03.927Z,1010.79
2019-05-29T01:07:03.990Z,1010.79
2019-05-29T01:08:03.911Z,1010.76
2019-05-29T01:09:03.949Z,1010.83
2019-05-29T01:10:03.895Z,1010.77
2019-05-29T01:11:03.881Z,1010.81
2019-05-29T01:12:03.870Z,1010.83
2019-05-29T01:13:03.877Z,1010.82
2019-05-29T01:14:03.861Z,1010.80
2019-05-29T01:15:03.831Z,1010.84
2019-05-29T01:16:03.822Z,1010.88
2019-05-29T01:17:03.820Z,1010.83
2019-05-29T01:18:03.822Z,1010.89
2019-05-29T01:19:03.791Z,1010.88
2019-05-29T01:20:03.791Z,1010.93
2019-05-29T01:21:03.771Z,1010.85
2019-05-29T01:22:03.847Z,1010.87
2019-05-29T01:23:03.760Z,1010.90
2019-05-29T01:24:03.737Z,1010.95
2019-05-29T01:25:03.746Z,1010.94
2019-05-29T01:26:03.780Z,1010.98
2019-05-29T01:27:03.780Z,1010.99
2019-05-29T01:28:03.706Z,1011.01
2019-05-29T01:29:03.683Z,1010.98
2019-05-29T01:30:03.686Z,1011.00
2019-05-29T01:31:03.677Z,1010.97
2019-05-29T01:32:03.684Z,1011.03
2019-05-29T01:33:03.654Z,1011.06
2019-05-29T01:34:03.632Z,1011.05
2019-05-29T01:35:03.642Z,1011.10
2019-05-29T01:36:03.600Z,1011.11
2019-05-29T01:37:03.591Z,1011.07
2019-05-29T01:38:03.590Z,1011.18
2019-05-29T01:39:03.586Z,1011.20
2019-05-29T01:40:18.693Z,1011.12
2019-05-29T01:41:04.546Z,1011.19
2019-05-29T01:42:03.534Z,1011.29
2019-05-29T01:43:03.540Z,1011.26
2019-05-29T01:44:03.551Z,1011.38
2019-05-29T01:45:08.285Z,1011.36
2019-05-29T01:46:04.490Z,1011.40
2019-05-29T01:47:03.480Z,1011.41
2019-05-29T01:48:03.470Z,1011.40
2019-05-29T01:49:03.476Z,1011.44
2019-05-29T01:50:03.471Z,1011.46
2019-05-29T01:51:03.459Z,1011.48
2019-05-29T01:52:03.432Z,1011.47
2019-05-29T01:53:03.419Z,1011.44
2019-05-29T01:54:03.436Z,1011.50
2019-05-29T01:55:03.399Z,1011.54
2019-05-29T01:56:03.399Z,1011.54
2019-05-29T01:57:03.395Z,1011.55
2019-05-29T01:58:03.402Z,1011.57
2019-05-29T01:59:03.364Z,1011.61
2019-05-29T02:00:03.380Z,1011.58
2019-05-29T02:01:03.334Z,1011.63
2019-05-29T02:02:03.322Z,1011.62
2019-05-29T02:03:03.334Z,1011.54
2019-05-29T02:04:03.362Z,1011.60
2019-05-29T02:05:03.291Z,1011.61
2019-05-29T02:06:03.275Z,1011.57
2019-05-29T02:07:03.264Z,1011.62
2019-05-29T02:08:03.266Z,1011.60
2019-05-29T02:09:03.283Z,1011.53
2019-05-29T02:10:03.246Z,1011.62
2019-05-29T02:11:03.240Z,1011.63
2019-05-29T02:12:03.213Z,1011.60
2019-05-29T02:13:03.257Z,1011.63
2019-05-29T02:14:03.189Z,1011.63
2019-05-29T02:15:03.194Z,1011.65
2019-05-29T02:16:03.167Z,1011.60
2019-05-29T02:17:03.163Z,1011.61
2019-05-29T02:18:03.159Z,1011.62
2019-05-29T02:19:03.192Z,1011.59
2019-05-29T02:20:03.151Z,1011.69
2019-05-29T02:21:03.138Z,1011.62
2019-05-29T02:22:03.115Z,1011.68
2019-05-29T02:23:03.111Z,1011.63
2019-05-29T02:24:03.086Z,1011.70
2019-05-29T02:25:03.091Z,1011.75
2019-05-29T02:26:03.087Z,1011.79
2019-05-29T02:27:03.081Z,1011.78
2019-05-29T02:28:03.040Z,1011.85
2019-05-29T02:29:03.042Z,1011.86
2019-05-29T02:30:03.030Z,1011.87
2019-05-29T02:31:03.008Z,1011.86
2019-05-29T02:32:03.009Z,1011.83
2019-05-29T02:33:02.983Z,1011.83
2019-05-29T02:34:07.242Z,1011.83
2019-05-29T02:35:02.989Z,1011.86
2019-05-29T02:36:02.961Z,1011.92
2019-05-29T02:37:02.952Z,1011.92
2019-05-29T02:38:02.951Z,1011.91
2019-05-29T02:39:02.933Z,1011.90
2019-05-29T02:40:02.927Z,1011.86
2019-05-29T02:41:02.919Z,1011.94
2019-05-29T02:42:02.906Z,1011.95
2019-05-29T02:43:02.880Z,1011.98
2019-05-29T02:44:02.880Z,1012.00
2019-05-29T02:45:02.866Z,1012.03
2019-05-29T02:46:02.858Z,1011.98
2019-05-29T02:47:02.868Z,1011.99
2019-05-29T02:48:02.822Z,1011.94
2019-05-29T02:49:02.833Z,1011.98
2019-05-29T02:50:02.798Z,1012.02
2019-05-29T02:51:02.801Z,1012.04
2019-05-29T02:52:02.800Z,1012.01
2019-05-29T02:53:02.760Z,1012.08
2019-05-29T02:54:02.753Z,1012.05
2019-05-29T02:55:02.740Z,1012.06
2019-05-29T02:56:02.749Z,1012.09
2019-05-29T02:57:02.726Z,1012.06
2019-05-29T02:58:02.734Z,1012.07
2019-05-29T02:59:02.725Z,1012.15
2019-05-29T03:00:02.712Z,1012.12
2019-05-29T03:01:02.693Z,1012.17
2019-05-29T03:02:02.678Z,1012.21
2019-05-29T03:03:02.656Z,1012.24
2019-05-29T03:04:02.652Z,1012.21
2019-05-29T03:05:02.636Z,1012.24
2019-05-29T03:06:02.668Z,1012.27
2019-05-29T03:07:02.641Z,1012.23
2019-05-29T03:08:02.600Z,1012.22
2019-05-29T03:09:02.589Z,1012.18
2019-05-29T03:10:02.580Z,1012.28
2019-05-29T03:11:02.606Z,1012.32
2019-05-29T03:12:02.597Z,1012.35
2019-05-29T03:13:02.545Z,1012.35
2019-05-29T03:14:02.533Z,1012.37
2019-05-29T03:15:02.521Z,1012.42
2019-05-29T03:16:10.364Z,1012.43
2019-05-29T03:17:03.526Z,1012.43
2019-05-29T03:18:02.491Z,1012.48
2019-05-29T03:19:02.490Z,1012.46
2019-05-29T03:20:02.475Z,1012.54
2019-05-29T03:21:02.459Z,1012.55
2019-05-29T03:22:02.479Z,1012.54
2019-05-29T03:23:02.447Z,1012.62
2019-05-29T03:24:02.430Z,1012.70
2019-05-29T03:25:02.418Z,1012.68
2019-05-29T03:26:02.416Z,1012.70
2019-05-29T03:27:02.421Z,1012.68
2019-05-29T03:28:02.401Z,1012.68
2019-05-29T03:29:02.374Z,1012.71
2019-05-29T03:30:02.379Z,1012.73
2019-05-29T03:31:02.441Z,1012.78
2019-05-29T03:32:02.359Z,1012.82
2019-05-29T03:33:02.349Z,1012.78
2019-05-29T03:34:02.329Z,1012.87
2019-05-29T03:35:02.307Z,1012.84
2019-05-29T03:36:02.316Z,1012.89
2019-05-29T03:37:02.294Z,1012.86
2019-05-29T03:38:02.306Z,1012.86
2019-05-29T03:39:02.262Z,1012.89
2019-05-29T03:40:02.259Z,1012.88
2019-05-29T03:41:02.258Z,1012.98
2019-05-29T03:42:02.230Z,1012.94
2019-05-29T03:43:02.241Z,1012.95
2019-05-29T03:44:02.229Z,1012.96
2019-05-29T03:45:02.215Z,1013.01
2019-05-29T03:46:02.201Z,1013.05
2019-05-29T03:47:02.214Z,1013.09
2019-05-29T03:48:02.179Z,1013.10
2019-05-29T03:49:02.168Z,1013.06
2019-05-29T03:50:02.156Z,1013.15
2019-05-29T03:51:02.134Z,1013.13
2019-05-29T03:52:02.152Z,1013.17
2019-05-29T03:53:02.127Z,1013.20
2019-05-29T03:54:02.108Z,1013.20
2019-05-29T03:55:02.123Z,1013.29
2019-05-29T03:56:02.083Z,1013.30
2019-05-29T03:57:02.074Z,1013.36
2019-05-29T03:58:02.094Z,1013.40
2019-05-29T03:59:02.057Z,1013.34
2019-05-29T04:00:02.041Z,1013.41
2019-05-29T04:01:02.039Z,1013.42
2019-05-29T04:02:02.017Z,1013.37
2019-05-29T04:03:02.035Z,1013.46
2019-05-29T04:04:02.025Z,1013.49
2019-05-29T04:05:02.122Z,1013.43
2019-05-29T04:06:01.987Z,1013.47
2019-05-29T04:07:01.962Z,1013.55
2019-05-29T04:08:01.960Z,1013.49
2019-05-29T04:09:01.955Z,1013.52
2019-05-29T04:10:01.984Z,1013.55
2019-05-29T04:11:01.932Z,1013.51
2019-05-29T04:12:01.923Z,1013.59
2019-05-29T04:13:01.900Z,1013.62
2019-05-29T04:14:01.914Z,1013.57
2019-05-29T04:15:01.892Z,1013.70
2019-05-29T04:16:01.876Z,1013.57
2019-05-29T04:17:01.878Z,1013.62
2019-05-29T04:18:01.842Z,1013.61
2019-05-29T04:19:01.867Z,1013.64
2019-05-29T04:20:01.818Z,1013.73
2019-05-29T04:21:01.816Z,1013.65
2019-05-29T04:22:01.817Z,1013.70
2019-05-29T04:23:01.791Z,1013.72
2019-05-29T04:24:01.816Z,1013.76
2019-05-29T04:25:01.770Z,1013.73
2019-05-29T04:26:01.772Z,1013.79
2019-05-29T04:27:01.739Z,1013.80
2019-05-29T04:28:01.733Z,1013.81
2019-05-29T04:29:01.737Z,1013.81
2019-05-29T04:30:01.734Z,1013.78
2019-05-29T04:31:01.710Z,1013.86
2019-05-29T04:32:01.696Z,1013.88
2019-05-29T04:33:01.679Z,1013.93
2019-05-29T04:34:01.673Z,1013.86
2019-05-29T04:35:01.681Z,1013.95
2019-05-29T04:36:01.675Z,1013.97
2019-05-29T04:37:01.635Z,1013.98
2019-05-29T04:38:01.637Z,1013.99
2019-05-29T04:39:01.619Z,1014.00
2019-05-29T04:40:01.650Z,1014.02
2019-05-29T04:41:01.600Z,1014.00
2019-05-29T04:42:01.592Z,1014.03
2019-05-29T04:43:01.581Z,1014.03
2019-05-29T04:44:01.553Z,1014.06
2019-05-29T04:45:01.589Z,1014.10
2019-05-29T04:46:01.537Z,1014.05
2019-05-29T04:47:11.014Z,1014.10
2019-05-29T04:48:02.533Z,1014.16
2019-05-29T04:49:01.507Z,1014.13
2019-05-29T04:50:01.516Z,1014.15
2019-05-29T04:51:01.474Z,1014.11
2019-05-29T04:52:01.468Z,1014.21
2019-05-29T04:53:01.471Z,1014.18
2019-05-29T04:54:01.451Z,1014.28
2019-05-29T04:55:01.465Z,1014.27
2019-05-29T04:56:01.427Z,1014.26
2019-05-29T04:57:01.410Z,1014.29
2019-05-29T04:58:01.397Z,1014.24
2019-05-29T04:59:01.390Z,1014.28
2019-05-29T05:00:01.413Z,1014.27
2019-05-29T05:01:01.364Z,1014.28
2019-05-29T05:02:01.390Z,1014.26
2019-05-29T05:03:01.358Z,1014.30
2019-05-29T05:04:01.350Z,1014.27
2019-05-29T05:05:01.338Z,1014.21
2019-05-29T05:06:01.344Z,1014.32
2019-05-29T05:07:01.309Z,1014.30
2019-05-29T05:08:01.301Z,1014.31
2019-05-29T05:09:01.279Z,1014.33
2019-05-29T05:10:01.284Z,1014.41
2019-05-29T05:11:01.283Z,1014.39
2019-05-29T05:12:01.267Z,1014.44
2019-05-29T05:13:01.239Z,1014.48
2019-05-29T05:14:01.857Z,1014.57
2019-05-29T05:15:01.215Z,1014.51
2019-05-29T05:16:01.217Z,1014.52
2019-05-29T05:17:01.212Z,1014.54
2019-05-29T05:18:01.177Z,1014.61
2019-05-29T05:19:01.170Z,1014.65
2019-05-29T05:20:01.161Z,1014.63
2019-05-29T05:21:01.176Z,1014.65
2019-05-29T05:22:01.162Z,1014.60
2019-05-29T05:23:01.127Z,1014.73
2019-05-29T05:24:01.127Z,1014.72
2019-05-29T05:25:01.200Z,1014.70
2019-05-29T05:26:01.109Z,1014.75
2019-05-29T05:27:01.083Z,1014.77
2019-05-29T05:28:01.079Z,1014.77
2019-05-29T05:29:01.075Z,1014.76
2019-05-29T05:30:01.049Z,1014.81
2019-05-29T05:31:01.045Z,1014.90
2019-05-29T05:32:01.043Z,1014.86
2019-05-29T05:33:01.022Z,1014.80
2019-05-29T05:34:01.023Z,1014.86
2019-05-29T05:35:00.995Z,1014.83
2019-05-29T05:36:01.013Z,1014.86
2019-05-29T05:37:00.979Z,1014.84
2019-05-29T05:38:01.001Z,1014.87
2019-05-29T05:39:01.005Z,1014.92
2019-05-29T05:40:00.937Z,1014.90
2019-05-29T05:41:00.945Z,1014.97
2019-05-29T05:42:00.934Z,1014.91
2019-05-29T05:43:00.917Z,1014.97
2019-05-29T05:44:00.897Z,1014.98
2019-05-29T05:45:00.884Z,1015.03
2019-05-29T05:46:00.898Z,1015.03
2019-05-29T05:47:00.858Z,1014.98
2019-05-29T05:48:00.857Z,1015.11
2019-05-29T05:49:00.838Z,1015.01
2019-05-29T05:50:00.839Z,1015.04
2019-05-29T05:51:00.822Z,1015.10
2019-05-29T05:52:00.831Z,1015.13
2019-05-29T05:53:00.801Z,1015.15
2019-05-29T05:54:00.783Z,1015.19
2019-05-29T05:55:00.782Z,1015.14
2019-05-29T05:56:00.760Z,1015.19
2019-05-29T05:57:00.769Z,1015.16
2019-05-29T05:58:00.738Z,1015.26
2019-05-29T05:59:00.736Z,1015.16
2019-05-29T06:00:00.727Z,1015.20
2019-05-29T06:01:00.706Z,1015.24
2019-05-29T06:02:00.714Z,1015.22
2019-05-29T06:03:00.692Z,1015.22
2019-05-29T06:04:00.678Z,1015.22
2019-05-29T06:05:00.669Z,1015.28
2019-05-29T06:06:00.656Z,1015.29
2019-05-29T06:07:00.658Z,1015.32
2019-05-29T06:08:00.637Z,1015.36
2019-05-29T06:09:00.623Z,1015.40
2019-05-29T06:10:00.634Z,1015.44
2019-05-29T06:11:00.600Z,1015.47
2019-05-29T06:12:00.602Z,1015.46
2019-05-29T06:13:00.585Z,1015.53
2019-05-29T06:14:00.576Z,1015.54
2019-05-29T06:15:00.574Z,1015.53
2019-05-29T06:16:00.552Z,1015.52
2019-05-29T06:17:00.547Z,1015.51
2019-05-29T06:18:19.431Z,1015.55
2019-05-29T06:19:01.513Z,1015.58
2019-05-29T06:20:00.502Z,1015.56
2019-05-29T06:21:00.531Z,1015.57
2019-05-29T06:22:00.506Z,1015.58
2019-05-29T06:23:00.474Z,1015.55
2019-05-29T06:24:00.466Z,1015.53
2019-05-29T06:25:00.449Z,1015.54
2019-05-29T06:26:00.442Z,1015.61
2019-05-29T06:27:00.453Z,1015.71
2019-05-29T06:28:00.427Z,1015.68
2019-05-29T06:29:00.407Z,1015.67
2019-05-29T06:30:00.408Z,1015.69
2019-05-29T06:31:00.405Z,1015.71
2019-05-29T06:32:00.379Z,1015.77
2019-05-29T06:33:00.390Z,1015.80
2019-05-29T06:34:00.363Z,1015.84
2019-05-29T06:35:00.348Z,1015.79
2019-05-29T06:36:00.346Z,1015.75
2019-05-29T06:37:00.323Z,1015.85
2019-05-29T06:38:00.330Z,1015.78
2019-05-29T06:39:00.304Z,1015.81
2019-05-29T06:40:00.296Z,1015.85
2019-05-29T06:41:00.278Z,1015.89
2019-05-29T06:42:00.277Z,1015.87
2019-05-29T06:43:00.276Z,1015.90
2019-05-29T06:44:00.242Z,1015.91
2019-05-29T06:45:00.379Z,1015.92
2019-05-29T06:46:00.220Z,1015.94
2019-05-29T06:47:00.210Z,1016.00
2019-05-29T06:48:00.218Z,1016.07
2019-05-29T06:49:01.147Z,1016.03
2019-05-29T06:50:00.180Z,1016.10
2019-05-29T06:51:00.181Z,1016.10
2019-05-29T06:52:00.157Z,1015.97
2019-05-29T06:53:00.157Z,1016.09
2019-05-29T06:54:00.139Z,1016.06
2019-05-29T06:55:00.160Z,1016.08
2019-05-29T06:56:01.481Z,1016.15
2019-05-29T06:57:00.106Z,1016.12
2019-05-29T06:58:00.107Z,1016.04
2019-05-29T06:59:00.081Z,1016.03
2019-05-29T07:00:00.069Z,1016.16
2019-05-29T07:01:00.062Z,1016.19
2019-05-29T07:02:00.047Z,1016.19
2019-05-29T07:03:00.086Z,1016.21
2019-05-29T07:04:11.494Z,1016.21
2019-05-29T07:05:01.015Z,1016.25
2019-05-29T07:06:00.007Z,1016.20
2019-05-29T07:06:59.992Z,1016.24
2019-05-29T07:08:16.848Z,1016.31
2019-05-29T07:09:00.971Z,1016.27
2019-05-29T07:09:59.959Z,1016.27
2019-05-29T07:10:59.949Z,1016.25
2019-05-29T07:11:59.939Z,1016.30
2019-05-29T07:12:59.930Z,1016.24
2019-05-29T07:13:59.932Z,1016.30
2019-05-29T07:14:59.906Z,1016.36
2019-05-29T07:15:59.899Z,1016.41
2019-05-29T07:16:59.885Z,1016.40
2019-05-29T07:17:59.874Z,1016.46
2019-05-29T07:20:04.128Z,1016.49
2019-05-29T07:20:59.846Z,1016.44
2019-05-29T07:21:59.840Z,1016.45
2019-05-29T07:22:59.823Z,1016.51
2019-05-29T07:23:59.840Z,1016.45
2019-05-29T07:24:59.810Z,1016.51
2019-05-29T07:25:59.790Z,1016.50
2019-05-29T07:26:59.789Z,1016.53
2019-05-29T07:27:59.770Z,1016.50
2019-05-29T07:29:08.102Z,1016.51
2019-05-29T07:30:00.776Z,1016.51
2019-05-29T07:31:03.152Z,1016.52
2019-05-29T07:31:59.733Z,1016.57
2019-05-29T07:32:59.715Z,1016.68
2019-05-29T07:33:59.714Z,1016.63
2019-05-29T07:35:03.577Z,1016.55
2019-05-29T07:35:59.682Z,1016.63
2019-05-29T07:36:59.674Z,1016.62
2019-05-29T07:37:59.662Z,1016.69
2019-05-29T07:39:03.668Z,1016.67
2019-05-29T07:39:59.652Z,1016.68
2019-05-29T07:40:59.657Z,1016.64
2019-05-29T07:41:59.624Z,1016.69
2019-05-29T07:42:59.614Z,1016.66
2019-05-29T07:43:59.597Z,1016.67
2019-05-29T07:44:59.614Z,1016.77
2019-05-29T07:45:59.574Z,1016.71
2019-05-29T07:46:59.571Z,1016.80
2019-05-29T07:47:59.570Z,1016.70
2019-05-29T07:48:59.562Z,1016.68
2019-05-29T07:49:59.556Z,1016.66
2019-05-29T07:51:06.927Z,1016.70
2019-05-29T07:52:00.515Z,1016.67
2019-05-29T07:52:59.519Z,1016.68
2019-05-29T07:53:59.485Z,1016.78
2019-05-29T07:54:59.482Z,1016.73
2019-05-29T07:55:59.481Z,1016.73
2019-05-29T07:56:59.454Z,1016.71
2019-05-29T07:57:59.444Z,1016.76
2019-05-29T07:59:03.340Z,1016.72
2019-05-29T07:59:59.427Z,1016.85
2019-05-29T08:01:11.674Z,1016.88
2019-05-29T08:02:00.410Z,1016.82
2019-05-29T08:02:59.391Z,1016.86
2019-05-29T08:03:59.383Z,1016.91
2019-05-29T08:04:59.373Z,1016.86
2019-05-29T08:05:59.384Z,1016.82
2019-05-29T08:06:59.346Z,1016.90
2019-05-29T08:07:59.341Z,1017.01
2019-05-29T08:08:59.330Z,1016.99
2019-05-29T08:09:59.317Z,1017.00
2019-05-29T08:10:59.318Z,1016.94
2019-05-29T08:11:59.319Z,1017.04
2019-05-29T08:12:59.289Z,1016.98
2019-05-29T08:13:59.272Z,1017.01
2019-05-29T08:14:59.262Z,1017.03
2019-05-29T08:16:02.992Z,1016.93
2019-05-29T08:16:59.258Z,1017.02
2019-05-29T08:17:59.227Z,1016.94
2019-05-29T08:18:59.216Z,1016.97
2019-05-29T08:20:06.592Z,1017.00
2019-05-29T08:21:00.197Z,1016.99
2019-05-29T08:21:59.200Z,1017.03
2019-05-29T08:22:59.174Z,1017.04
2019-05-29T08:23:59.160Z,1016.99
2019-05-29T08:24:59.172Z,1017.00
2019-05-29T08:25:59.141Z,1017.02
2019-05-29T08:26:59.146Z,1017.07
2019-05-29T08:27:59.112Z,1016.99
2019-05-29T08:28:59.103Z,1017.03
2019-05-29T08:29:59.097Z,1017.07
2019-05-29T08:30:59.083Z,1017.07
2019-05-29T08:31:59.097Z,1017.11
2019-05-29T08:32:59.062Z,1017.07
2019-05-29T08:33:59.072Z,1017.12
2019-05-29T08:34:59.037Z,1017.15
2019-05-29T08:36:00.370Z,1017.12
2019-05-29T08:37:06.554Z,1017.21
2019-05-29T08:38:00.023Z,1017.18
2019-05-29T08:38:59.000Z,1017.25
2019-05-29T08:39:58.983Z,1017.15
2019-05-29T08:40:58.981Z,1017.09
2019-05-29T08:42:21.482Z,1017.13
2019-05-29T08:42:59.967Z,1017.23
2019-05-29T08:43:58.946Z,1017.18
2019-05-29T08:44:58.936Z,1017.30
2019-05-29T08:45:58.927Z,1017.28
2019-05-29T08:47:09.505Z,1017.34
2019-05-29T08:47:59.932Z,1017.29
2019-05-29T08:48:58.885Z,1017.30
2019-05-29T08:50:16.827Z,1017.28
2019-05-29T08:50:59.862Z,1017.22
2019-05-29T08:52:11.003Z,1017.29
2019-05-29T08:53:02.533Z,1017.23
2019-05-29T08:53:58.846Z,1017.28
2019-05-29T08:54:58.824Z,1017.34
2019-05-29T08:55:58.820Z,1017.34
2019-05-29T08:56:58.806Z,1017.40
2019-05-29T08:57:58.824Z,1017.32
2019-05-29T08:58:58.789Z,1017.32
2019-05-29T08:59:58.780Z,1017.37
2019-05-29T09:00:58.773Z,1017.37
2019-05-29T09:01:58.755Z,1017.41
2019-05-29T09:02:58.736Z,1017.41
2019-05-29T09:03:58.741Z,1017.37
2019-05-29T09:04:58.717Z,1017.33
2019-05-29T09:06:08.631Z,1017.37
2019-05-29T09:06:59.687Z,1017.39
2019-05-29T09:07:58.681Z,1017.41
2019-05-29T09:08:58.681Z,1017.41
2019-05-29T09:09:58.663Z,1017.40
2019-05-29T09:10:58.658Z,1017.48
2019-05-29T09:11:58.646Z,1017.43
2019-05-29T09:13:04.898Z,1017.39
2019-05-29T09:13:59.636Z,1017.42
2019-05-29T09:14:58.614Z,1017.43
2019-05-29T09:15:58.595Z,1017.38
2019-05-29T09:16:58.640Z,1017.42
2019-05-29T09:17:58.576Z,1017.44
2019-05-29T09:18:58.596Z,1017.45
2019-05-29T09:19:58.561Z,1017.46
2019-05-29T09:21:03.292Z,1017.40
2019-05-29T09:21:59.535Z,1017.51
2019-05-29T09:22:58.529Z,1017.52
2019-05-29T09:23:59.155Z,1017.66
2019-05-29T09:24:58.568Z,1017.57
2019-05-29T09:26:13.604Z,1017.60
2019-05-29T09:26:59.478Z,1017.49
2019-05-29T09:27:58.466Z,1017.50
2019-05-29T09:28:58.474Z,1017.44
2019-05-29T09:29:58.469Z,1017.47
2019-05-29T09:30:58.444Z,1017.45
2019-05-29T09:31:58.434Z,1017.45
2019-05-29T09:32:58.412Z,1017.50
2019-05-29T09:33:58.399Z,1017.46
2019-05-29T09:34:58.401Z,1017.48
2019-05-29T09:35:58.378Z,1017.56
2019-05-29T09:36:58.392Z,1017.56
2019-05-29T09:37:58.355Z,1017.56
2019-05-29T09:38:58.410Z,1017.60
2019-05-29T09:39:58.352Z,1017.61
2019-05-29T09:40:58.326Z,1017.55
2019-05-29T09:41:58.334Z,1017.57
2019-05-29T09:42:58.305Z,1017.54
2019-05-29T09:44:00.236Z,1017.49
2019-05-29T09:44:58.295Z,1017.54
2019-05-29T09:46:02.053Z,1017.61
2019-05-29T09:46:58.260Z,1017.62
2019-05-29T09:47:58.263Z,1017.62
2019-05-29T09:49:01.296Z,1017.58
2019-05-29T09:49:58.242Z,1017.57
2019-05-29T09:50:58.216Z,1017.64
2019-05-29T09:51:58.204Z,1017.69
2019-05-29T09:52:59.007Z,1017.69
2019-05-29T09:53:59.452Z,1017.70
2019-05-29T09:54:58.350Z,1017.71
2019-05-29T09:55:59.075Z,1017.68
2019-05-29T09:56:59.456Z,1017.68
2019-05-29T09:57:58.687Z,1017.73
2019-05-29T09:58:59.781Z,1017.72
2019-05-29T09:59:59.818Z,1017.63
2019-05-29T10:01:18.449Z,1017.71
2019-05-29T10:02:00.300Z,1017.65
2019-05-29T10:02:59.451Z,1017.72
2019-05-29T10:04:00.035Z,1017.69
2019-05-29T10:05:00.502Z,1017.76
2019-05-29T10:05:59.371Z,1017.72
2019-05-29T10:06:59.435Z,1017.78
2019-05-29T10:07:58.528Z,1017.75
2019-05-29T10:08:58.200Z,1017.74
2019-05-29T10:09:59.280Z,1017.72
2019-05-29T10:11:05.921Z,1017.88
2019-05-29T10:12:03.275Z,1017.81
2019-05-29T10:12:59.978Z,1017.78
2019-05-29T10:13:58.829Z,1017.79
2019-05-29T10:14:58.926Z,1017.80
2019-05-29T10:15:59.119Z,1017.77
2019-05-29T10:16:59.330Z,1017.78
2019-05-29T10:17:58.499Z,1017.84
2019-05-29T10:18:59.787Z,1017.84
2019-05-29T10:19:58.975Z,1017.86
2019-05-29T10:20:59.546Z,1017.89
2019-05-29T10:22:00.061Z,1018.03
2019-05-29T10:22:58.929Z,1017.92
2019-05-29T10:23:59.420Z,1017.98
2019-05-29T10:24:58.711Z,1017.96
2019-05-29T10:25:58.821Z,1017.86
2019-05-29T10:26:59.050Z,1017.91
2019-05-29T10:27:57.817Z,1018.18
2019-05-29T10:29:58.789Z,1018.05
2019-05-29T10:31:02.905Z,1018.04
2019-05-29T10:31:58.776Z,1017.92
2019-05-29T10:32:57.759Z,1018.23
2019-05-29T10:33:57.754Z,1018.17
2019-05-29T10:34:38.800Z,1017.90
2019-05-29T10:34:57.734Z,1018.05
2019-05-29T10:35:57.740Z,1018.20
2019-05-29T10:36:57.715Z,1018.09
2019-05-29T10:37:57.704Z,1017.93
2019-05-29T10:38:57.692Z,1017.93
2019-05-29T10:39:57.706Z,1018.04
2019-05-29T10:41:06.264Z,1018.02
2019-05-29T10:41:58.664Z,1017.96
2019-05-29T10:42:57.655Z,1017.91
2019-05-29T10:43:57.640Z,1017.92
2019-05-29T10:44:57.631Z,1017.84
2019-05-29T10:45:57.680Z,1017.96
2019-05-29T10:46:57.609Z,1017.88
2019-05-29T10:47:57.601Z,1017.92
2019-05-29T10:48:57.588Z,1018.08
2019-05-29T10:49:57.582Z,1018.09
2019-05-29T10:50:57.576Z,1018.05
2019-05-29T10:52:11.955Z,1017.98
2019-05-29T10:52:58.545Z,1018.04
2019-05-29T10:53:59.118Z,1018.02
2019-05-29T10:54:57.531Z,1018.11
2019-05-29T10:55:57.525Z,1017.98
2019-05-29T10:56:57.538Z,1017.97
2019-05-29T10:57:57.487Z,1018.37
2019-05-29T10:58:59.784Z,1018.01
2019-05-29T10:59:57.470Z,1018.06
2019-05-29T11:00:57.463Z,1018.17
2019-05-29T11:01:57.456Z,1018.10
2019-05-29T11:02:57.758Z,1018.53
2019-05-29T11:03:57.432Z,1018.14
2019-05-29T11:04:59.541Z,1018.51
2019-05-29T11:05:57.409Z,1018.54
2019-05-29T11:06:57.433Z,1018.45
2019-05-29T11:07:57.406Z,1018.42
2019-05-29T11:08:57.372Z,1018.30
2019-05-29T11:09:57.364Z,1018.17
2019-05-29T11:10:57.366Z,1018.45
2019-05-29T11:11:57.812Z,1018.36
2019-05-29T11:12:57.326Z,1018.13
2019-05-29T11:13:57.352Z,1018.42
2019-05-29T11:14:57.308Z,1018.06
2019-05-29T11:15:57.296Z,1018.01
2019-05-29T11:16:57.661Z,1018.07
2019-05-29T11:17:57.442Z,1018.00
2019-05-29T11:18:57.695Z,1018.00
2019-05-29T11:19:58.261Z,1018.00
2019-05-29T11:20:57.603Z,1018.02
2019-05-29T11:22:04.577Z,1018.30
2019-05-29T11:22:58.239Z,1018.40
2019-05-29T11:23:58.258Z,1018.03
2019-05-29T11:25:00.190Z,1018.09
2019-05-29T11:25:58.265Z,1018.46
2019-05-29T11:26:57.182Z,1018.43
2019-05-29T11:27:58.554Z,1018.42
2019-05-29T11:28:58.611Z,1018.08
2019-05-29T11:29:57.215Z,1018.41
2019-05-29T11:30:57.284Z,1018.38
2019-05-29T11:31:57.135Z,1018.12
2019-05-29T11:32:59.203Z,1018.38
2019-05-29T11:33:57.289Z,1018.27
2019-05-29T11:34:57.518Z,1018.16
2019-05-29T11:36:09.484Z,1018.05
2019-05-29T11:36:58.360Z,1018.01
2019-05-29T11:37:57.065Z,1018.01
2019-05-29T11:39:01.386Z,1017.98
2019-05-29T11:39:59.015Z,1018.02
2019-05-29T11:41:20.234Z,1017.94
2019-05-29T11:41:58.936Z,1017.99
2019-05-29T11:42:57.032Z,1018.43
2019-05-29T11:43:57.031Z,1018.41
2019-05-29T11:44:57.012Z,1018.35
2019-05-29T11:45:57.390Z,1018.33
2019-05-29T11:46:58.185Z,1018.43
2019-05-29T11:47:59.154Z,1018.43
2019-05-29T11:48:57.378Z,1018.42
2019-05-29T11:50:07.369Z,1018.40
2019-05-29T11:50:58.262Z,1018.42
2019-05-29T11:52:18.789Z,1018.43
2019-05-29T11:52:58.537Z,1018.46
2019-05-29T11:53:57.522Z,1018.36
2019-05-29T11:54:59.971Z,1018.35
2019-05-29T11:55:58.030Z,1018.38
2019-05-29T11:56:57.347Z,1018.34
2019-05-29T11:57:57.955Z,1018.36
2019-05-29T11:58:57.124Z,1018.40
2019-05-29T12:00:00.195Z,1018.40
2019-05-29T12:00:57.829Z,1018.42
2019-05-29T12:01:57.303Z,1018.28
2019-05-29T12:02:57.757Z,1018.47
2019-05-29T12:04:20.557Z,1018.40
2019-05-29T12:05:01.152Z,1018.39
2019-05-29T12:05:57.819Z,1018.39